Atlanta, Georgia
Traffic Map
Current Weather Conditions
Atlanta, Georgia
Broken Clouds
Broken Clouds
23°
Feels Like: 23°
Wind Chill: 23° Ceiling: 8000
Heat Index: 23° Visibility: 10mi
Dew Point: 20° Wind: 6mph
Humidity: 84% Direction: 120° (ESE)
Pressure: 30.15in Gusts: 0mph
Raw Report DataKATL 290852Z 12005KT 10SM SCT022 BKN080 BKN250 23/20 A3015 RMK AO2 SLP200 T02280200 56008
Traffic Incident Summary
Active as of:
Severity:
Category:
InformationThere was an issue retrieving the traffic information for this location. Please try a different location or try again shortly.
Advertisements
Track Severe Weather on mobile